sensor_id;sensor_type;location;lat;lon;timestamp;P1;P2;P0
62631;PMS5003;48703;51.248;-0.546;2023-04-25T00:02:48;9.64;8.79;
62631;PMS5003;48703;51.248;-0.546;2023-04-25T00:05:50;11.04;9.83;
62631;PMS5003;48703;51.248;-0.546;2023-04-25T00:08:51;13.26;9.87;
62631;PMS5003;48703;51.248;-0.546;2023-04-25T00:11:53;12.41;10.26;
62631;PMS5003;48703;51.248;-0.546;2023-04-25T00:14:55;12.06;10.16;
62631;PMS5003;48703;51.248;-0.546;2023-04-25T00:17:56;9.93;9.19;
62631;PMS5003;48703;51.248;-0.546;2023-04-25T00:20:58;11.31;9.86;
62631;PMS5003;48703;51.248;-0.546;2023-04-25T00:24:00;9.50;8.54;
62631;PMS5003;48703;51.248;-0.546;2023-04-25T00:27:01;8.36;7.80;
62631;PMS5003;48703;51.248;-0.546;2023-04-25T00:30:04;10.34;8.66;
62631;PMS5003;48703;51.248;-0.546;2023-04-25T00:33:04;8.46;7.52;
62631;PMS5003;48703;51.248;-0.546;2023-04-25T00:36:07;11.24;8.73;
62631;PMS5003;48703;51.248;-0.546;2023-04-25T00:39:08;7.40;7.13;
62631;PMS5003;48703;51.248;-0.546;2023-04-25T00:42:10;9.30;7.53;
62631;PMS5003;48703;51.248;-0.546;2023-04-25T00:45:12;7.91;6.91;
62631;PMS5003;48703;51.248;-0.546;2023-04-25T00:48:13;7.23;6.71;
62631;PMS5003;48703;51.248;-0.546;2023-04-25T00:51:16;7.99;6.96;
62631;PMS5003;48703;51.248;-0.546;2023-04-25T00:54:16;8.84;7.63;
62631;PMS5003;48703;51.248;-0.546;2023-04-25T00:57:18;7.13;7.03;
62631;PMS5003;48703;51.248;-0.546;2023-04-25T01:00:20;8.70;8.00;
62631;PMS5003;48703;51.248;-0.546;2023-04-25T01:03:22;8.30;7.41;
62631;PMS5003;48703;51.248;-0.546;2023-04-25T01:06:23;8.04;5.90;
62631;PMS5003;48703;51.248;-0.546;2023-04-25T01:09:25;8.11;6.49;
62631;PMS5003;48703;51.248;-0.546;2023-04-25T01:12:26;7.70;6.74;
62631;PMS5003;48703;51.248;-0.546;2023-04-25T01:15:28;8.78;7.12;
62631;PMS5003;48703;51.248;-0.546;2023-04-25T01:18:30;6.79;5.20;
62631;PMS5003;48703;51.248;-0.546;2023-04-25T01:21:31;6.61;5.84;
62631;PMS5003;48703;51.248;-0.546;2023-04-25T01:24:33;9.04;7.09;
62631;PMS5003;48703;51.248;-0.546;2023-04-25T01:27:35;7.10;5.73;
62631;PMS5003;48703;51.248;-0.546;2023-04-25T01:30:36;6.38;6.22;
62631;PMS5003;48703;51.248;-0.546;2023-04-25T01:33:38;5.81;5.59;
62631;PMS5003;48703;51.248;-0.546;2023-04-25T01:36:40;7.59;7.13;
62631;PMS5003;48703;51.248;-0.546;2023-04-25T01:39:42;7.26;5.87;
62631;PMS5003;48703;51.248;-0.546;2023-04-25T01:42:44;7.30;5.20;
62631;PMS5003;48703;51.248;-0.546;2023-04-25T01:45:45;7.91;6.16;
62631;PMS5003;48703;51.248;-0.546;2023-04-25T01:48:47;5.87;4.99;
62631;PMS5003;48703;51.248;-0.546;2023-04-25T01:51:49;5.96;5.13;
62631;PMS5003;48703;51.248;-0.546;2023-04-25T01:54:51;6.43;6.19;
62631;PMS5003;48703;51.248;-0.546;2023-04-25T01:57:52;7.68;7.14;
62631;PMS5003;48703;51.248;-0.546;2023-04-25T02:00:54;6.76;5.97;
62631;PMS5003;48703;51.248;-0.546;2023-04-25T02:03:56;5.97;5.63;
62631;PMS5003;48703;51.248;-0.546;2023-04-25T02:06:58;6.07;4.83;
62631;PMS5003;48703;51.248;-0.546;2023-04-25T02:10:00;7.40;6.24;
62631;PMS5003;48703;51.248;-0.546;2023-04-25T02:13:02;9.10;7.47;
62631;PMS5003;48703;51.248;-0.546;2023-04-25T02:16:04;9.01;7.71;
62631;PMS5003;48703;51.248;-0.546;2023-04-25T02:19:05;7.26;6.43;
62631;PMS5003;48703;51.248;-0.546;2023-04-25T02:22:07;10.20;9.17;
62631;PMS5003;48703;51.248;-0.546;2023-04-25T02:25:09;10.43;9.61;
62631;PMS5003;48703;51.248;-0.546;2023-04-25T02:28:10;10.93;8.91;
62631;PMS5003;48703;51.248;-0.546;2023-04-25T02:31:12;10.93;9.81;
62631;PMS5003;48703;51.248;-0.546;2023-04-25T02:34:14;11.04;9.33;
62631;PMS5003;48703;51.248;-0.546;2023-04-25T02:37:16;7.79;6.33;
62631;PMS5003;48703;51.248;-0.546;2023-04-25T02:40:18;7.80;6.50;
62631;PMS5003;48703;51.248;-0.546;2023-04-25T02:43:20;7.59;6.73;
62631;PMS5003;48703;51.248;-0.546;2023-04-25T02:46:21;7.31;6.54;
62631;PMS5003;48703;51.248;-0.546;2023-04-25T02:49:23;7.34;6.43;
62631;PMS5003;48703;51.248;-0.546;2023-04-25T02:52:25;6.33;5.73;
62631;PMS5003;48703;51.248;-0.546;2023-04-25T02:55:27;7.84;6.19;
62631;PMS5003;48703;51.248;-0.546;2023-04-25T02:58:29;7.60;7.51;
62631;PMS5003;48703;51.248;-0.546;2023-04-25T03:01:30;7.71;7.71;
62631;PMS5003;48703;51.248;-0.546;2023-04-25T03:04:32;7.56;5.84;
62631;PMS5003;48703;51.248;-0.546;2023-04-25T03:07:34;7.37;6.70;
62631;PMS5003;48703;51.248;-0.546;2023-04-25T03:10:35;8.04;7.61;
62631;PMS5003;48703;51.248;-0.546;2023-04-25T03:13:37;6.79;6.70;
62631;PMS5003;48703;51.248;-0.546;2023-04-25T03:16:39;9.25;8.45;
62631;PMS5003;48703;51.248;-0.546;2023-04-25T03:19:41;8.71;6.57;
62631;PMS5003;48703;51.248;-0.546;2023-04-25T03:22:43;5.29;4.84;
62631;PMS5003;48703;51.248;-0.546;2023-04-25T03:25:45;9.71;8.13;
62631;PMS5003;48703;51.248;-0.546;2023-04-25T03:28:46;6.64;5.66;
62631;PMS5003;48703;51.248;-0.546;2023-04-25T03:31:48;6.89;6.17;
62631;PMS5003;48703;51.248;-0.546;2023-04-25T03:34:50;6.56;6.33;
62631;PMS5003;48703;51.248;-0.546;2023-04-25T03:37:52;8.03;6.09;
62631;PMS5003;48703;51.248;-0.546;2023-04-25T03:40:54;7.37;7.06;
62631;PMS5003;48703;51.248;-0.546;2023-04-25T03:43:56;8.03;7.29;
62631;PMS5003;48703;51.248;-0.546;2023-04-25T03:46:57;6.33;5.71;
62631;PMS5003;48703;51.248;-0.546;2023-04-25T03:49:59;7.53;6.49;
62631;PMS5003;48703;51.248;-0.546;2023-04-25T03:53:01;6.27;5.67;
62631;PMS5003;48703;51.248;-0.546;2023-04-25T03:56:03;7.29;6.59;
62631;PMS5003;48703;51.248;-0.546;2023-04-25T03:59:05;6.89;5.73;
62631;PMS5003;48703;51.248;-0.546;2023-04-25T04:02:07;7.37;6.59;
62631;PMS5003;48703;51.248;-0.546;2023-04-25T04:05:09;7.19;5.26;
62631;PMS5003;48703;51.248;-0.546;2023-04-25T04:08:10;6.97;6.50;
62631;PMS5003;48703;51.248;-0.546;2023-04-25T04:11:12;5.81;5.63;
62631;PMS5003;48703;51.248;-0.546;2023-04-25T04:14:14;5.20;4.81;
62631;PMS5003;48703;51.248;-0.546;2023-04-25T04:17:16;6.07;5.80;
62631;PMS5003;48703;51.248;-0.546;2023-04-25T04:20:17;7.94;7.26;
62631;PMS5003;48703;51.248;-0.546;2023-04-25T04:23:19;8.16;6.10;
62631;PMS5003;48703;51.248;-0.546;2023-04-25T04:26:21;6.83;5.93;
62631;PMS5003;48703;51.248;-0.546;2023-04-25T04:29:23;6.61;5.67;
62631;PMS5003;48703;51.248;-0.546;2023-04-25T04:32:25;6.33;6.33;
62631;PMS5003;48703;51.248;-0.546;2023-04-25T04:35:27;7.51;6.60;
62631;PMS5003;48703;51.248;-0.546;2023-04-25T04:38:29;7.79;6.64;
62631;PMS5003;48703;51.248;-0.546;2023-04-25T04:41:31;6.91;5.57;
62631;PMS5003;48703;51.248;-0.546;2023-04-25T04:44:33;6.99;5.86;
62631;PMS5003;48703;51.248;-0.546;2023-04-25T04:47:35;6.23;5.37;
62631;PMS5003;48703;51.248;-0.546;2023-04-25T04:50:37;7.34;5.79;
62631;PMS5003;48703;51.248;-0.546;2023-04-25T04:53:38;7.94;6.79;
62631;PMS5003;48703;51.248;-0.546;2023-04-25T04:56:40;7.04;6.20;
62631;PMS5003;48703;51.248;-0.546;2023-04-25T04:59:42;7.83;7.50;
62631;PMS5003;48703;51.248;-0.546;2023-04-25T05:02:44;6.76;6.03;
62631;PMS5003;48703;51.248;-0.546;2023-04-25T05:05:46;7.75;7.25;
62631;PMS5003;48703;51.248;-0.546;2023-04-25T05:08:48;6.99;6.73;
62631;PMS5003;48703;51.248;-0.546;2023-04-25T05:11:50;8.09;7.44;
62631;PMS5003;48703;51.248;-0.546;2023-04-25T05:14:52;7.17;5.80;
62631;PMS5003;48703;51.248;-0.546;2023-04-25T05:17:54;6.67;5.47;
62631;PMS5003;48703;51.248;-0.546;2023-04-25T05:20:55;7.16;5.99;
62631;PMS5003;48703;51.248;-0.546;2023-04-25T05:23:57;6.87;6.36;
62631;PMS5003;48703;51.248;-0.546;2023-04-25T05:26:59;7.49;6.46;
62631;PMS5003;48703;51.248;-0.546;2023-04-25T05:30:01;8.93;7.46;
62631;PMS5003;48703;51.248;-0.546;2023-04-25T05:33:03;7.94;6.29;
62631;PMS5003;48703;51.248;-0.546;2023-04-25T05:36:05;8.77;7.50;
62631;PMS5003;48703;51.248;-0.546;2023-04-25T05:39:07;6.93;6.57;
62631;PMS5003;48703;51.248;-0.546;2023-04-25T05:42:08;10.14;9.30;
62631;PMS5003;48703;51.248;-0.546;2023-04-25T05:45:10;8.04;7.23;
62631;PMS5003;48703;51.248;-0.546;2023-04-25T05:48:12;16.19;11.99;
62631;PMS5003;48703;51.248;-0.546;2023-04-25T05:51:14;15.69;14.19;
62631;PMS5003;48703;51.248;-0.546;2023-04-25T05:54:15;19.78;16.36;
62631;PMS5003;48703;51.248;-0.546;2023-04-25T05:57:19;13.94;12.09;
62631;PMS5003;48703;51.248;-0.546;2023-04-25T06:00:18;10.33;9.29;
62631;PMS5003;48703;51.248;-0.546;2023-04-25T06:03:20;8.84;7.87;
62631;PMS5003;48703;51.248;-0.546;2023-04-25T06:06:22;9.16;8.31;
62631;PMS5003;48703;51.248;-0.546;2023-04-25T06:09:23;9.56;8.70;
62631;PMS5003;48703;51.248;-0.546;2023-04-25T06:12:25;9.33;7.13;
62631;PMS5003;48703;51.248;-0.546;2023-04-25T06:15:27;8.66;7.83;
62631;PMS5003;48703;51.248;-0.546;2023-04-25T06:18:29;8.49;7.13;
62631;PMS5003;48703;51.248;-0.546;2023-04-25T06:21:31;7.70;6.60;
62631;PMS5003;48703;51.248;-0.546;2023-04-25T06:24:32;11.35;8.99;
62631;PMS5003;48703;51.248;-0.546;2023-04-25T06:27:34;11.65;9.81;
62631;PMS5003;48703;51.248;-0.546;2023-04-25T06:30:36;8.80;7.70;
62631;PMS5003;48703;51.248;-0.546;2023-04-25T06:33:37;8.51;7.54;
62631;PMS5003;48703;51.248;-0.546;2023-04-25T06:36:39;8.09;7.60;
62631;PMS5003;48703;51.248;-0.546;2023-04-25T06:39:41;8.33;7.14;
62631;PMS5003;48703;51.248;-0.546;2023-04-25T06:42:43;8.00;6.94;
62631;PMS5003;48703;51.248;-0.546;2023-04-25T06:45:44;8.97;7.83;
62631;PMS5003;48703;51.248;-0.546;2023-04-25T06:48:45;10.04;8.78;
62631;PMS5003;48703;51.248;-0.546;2023-04-25T06:51:47;10.56;8.94;
62631;PMS5003;48703;51.248;-0.546;2023-04-25T06:54:48;9.78;6.77;
62631;PMS5003;48703;51.248;-0.546;2023-04-25T06:57:50;9.80;8.41;
62631;PMS5003;48703;51.248;-0.546;2023-04-25T07:00:52;8.10;6.31;
62631;PMS5003;48703;51.248;-0.546;2023-04-25T07:03:54;9.26;8.87;
62631;PMS5003;48703;51.248;-0.546;2023-04-25T07:06:56;8.67;6.86;
62631;PMS5003;48703;51.248;-0.546;2023-04-25T07:09:58;7.43;6.79;
62631;PMS5003;48703;51.248;-0.546;2023-04-25T07:13:00;7.67;6.81;
62631;PMS5003;48703;51.248;-0.546;2023-04-25T07:16:02;8.64;7.73;
62631;PMS5003;48703;51.248;-0.546;2023-04-25T07:19:04;6.70;6.57;
62631;PMS5003;48703;51.248;-0.546;2023-04-25T07:22:05;8.86;8.04;
62631;PMS5003;48703;51.248;-0.546;2023-04-25T07:25:07;9.44;9.06;
62631;PMS5003;48703;51.248;-0.546;2023-04-25T07:28:08;8.81;7.22;
62631;PMS5003;48703;51.248;-0.546;2023-04-25T07:31:10;7.28;6.29;
62631;PMS5003;48703;51.248;-0.546;2023-04-25T07:34:12;7.60;6.31;
62631;PMS5003;48703;51.248;-0.546;2023-04-25T07:37:14;8.41;6.99;
62631;PMS5003;48703;51.248;-0.546;2023-04-25T07:40:15;8.81;8.55;
62631;PMS5003;48703;51.248;-0.546;2023-04-25T07:43:17;8.31;6.34;
62631;PMS5003;48703;51.248;-0.546;2023-04-25T07:46:19;8.59;7.26;
62631;PMS5003;48703;51.248;-0.546;2023-04-25T07:49:21;8.67;7.54;
62631;PMS5003;48703;51.248;-0.546;2023-04-25T07:52:23;6.76;6.01;
62631;PMS5003;48703;51.248;-0.546;2023-04-25T07:55:24;9.10;8.14;
62631;PMS5003;48703;51.248;-0.546;2023-04-25T07:58:26;8.06;6.17;
62631;PMS5003;48703;51.248;-0.546;2023-04-25T08:01:28;6.64;5.69;
62631;PMS5003;48703;51.248;-0.546;2023-04-25T08:04:30;6.69;5.86;
62631;PMS5003;48703;51.248;-0.546;2023-04-25T08:07:31;8.81;7.41;
62631;PMS5003;48703;51.248;-0.546;2023-04-25T08:10:33;5.63;5.44;
62631;PMS5003;48703;51.248;-0.546;2023-04-25T08:13:35;5.49;5.14;
62631;PMS5003;48703;51.248;-0.546;2023-04-25T08:16:37;7.20;6.03;
62631;PMS5003;48703;51.248;-0.546;2023-04-25T08:19:38;6.14;4.89;
62631;PMS5003;48703;51.248;-0.546;2023-04-25T08:22:41;6.27;4.87;
62631;PMS5003;48703;51.248;-0.546;2023-04-25T08:25:42;5.86;5.17;
62631;PMS5003;48703;51.248;-0.546;2023-04-25T08:28:44;5.21;4.89;
62631;PMS5003;48703;51.248;-0.546;2023-04-25T08:31:46;5.83;4.80;
62631;PMS5003;48703;51.248;-0.546;2023-04-25T08:34:48;6.34;5.43;
62631;PMS5003;48703;51.248;-0.546;2023-04-25T08:37:49;6.63;5.50;
62631;PMS5003;48703;51.248;-0.546;2023-04-25T08:40:51;4.71;4.11;
62631;PMS5003;48703;51.248;-0.546;2023-04-25T08:43:53;4.84;3.86;
62631;PMS5003;48703;51.248;-0.546;2023-04-25T08:46:55;5.41;3.41;
62631;PMS5003;48703;51.248;-0.546;2023-04-25T08:49:56;3.74;3.23;
62631;PMS5003;48703;51.248;-0.546;2023-04-25T08:52:58;5.09;3.47;
62631;PMS5003;48703;51.248;-0.546;2023-04-25T08:56:01;4.67;4.13;
62631;PMS5003;48703;51.248;-0.546;2023-04-25T08:59:02;5.80;5.50;
62631;PMS5003;48703;51.248;-0.546;2023-04-25T09:02:03;4.67;4.04;
62631;PMS5003;48703;51.248;-0.546;2023-04-25T09:05:05;5.59;4.16;
62631;PMS5003;48703;51.248;-0.546;2023-04-25T09:08:07;5.59;4.40;
62631;PMS5003;48703;51.248;-0.546;2023-04-25T09:11:08;4.26;3.51;
62631;PMS5003;48703;51.248;-0.546;2023-04-25T09:14:11;4.66;3.71;
62631;PMS5003;48703;51.248;-0.546;2023-04-25T09:17:12;6.79;5.84;
62631;PMS5003;48703;51.248;-0.546;2023-04-25T09:20:14;5.63;4.81;
62631;PMS5003;48703;51.248;-0.546;2023-04-25T09:23:15;4.50;3.39;
62631;PMS5003;48703;51.248;-0.546;2023-04-25T09:26:18;5.77;2.93;
62631;PMS5003;48703;51.248;-0.546;2023-04-25T09:29:19;2.91;2.91;
62631;PMS5003;48703;51.248;-0.546;2023-04-25T09:32:21;3.26;3.26;
62631;PMS5003;48703;51.248;-0.546;2023-04-25T09:35:23;4.39;3.24;
62631;PMS5003;48703;51.248;-0.546;2023-04-25T09:38:24;3.71;2.93;
62631;PMS5003;48703;51.248;-0.546;2023-04-25T09:41:26;2.91;2.73;
62631;PMS5003;48703;51.248;-0.546;2023-04-25T09:44:28;4.13;3.61;
62631;PMS5003;48703;51.248;-0.546;2023-04-25T09:47:30;3.27;2.63;
62631;PMS5003;48703;51.248;-0.546;2023-04-25T09:50:32;3.07;2.07;
62631;PMS5003;48703;51.248;-0.546;2023-04-25T09:53:33;3.83;3.20;
62631;PMS5003;48703;51.248;-0.546;2023-04-25T09:56:35;2.66;2.34;
62631;PMS5003;48703;51.248;-0.546;2023-04-25T09:59:38;4.01;2.87;
62631;PMS5003;48703;51.248;-0.546;2023-04-25T10:02:39;3.30;3.07;
62631;PMS5003;48703;51.248;-0.546;2023-04-25T10:05:40;3.03;3.03;
62631;PMS5003;48703;51.248;-0.546;2023-04-25T10:08:43;2.83;2.34;
62631;PMS5003;48703;51.248;-0.546;2023-04-25T10:11:44;2.34;2.34;
62631;PMS5003;48703;51.248;-0.546;2023-04-25T10:14:45;2.34;2.04;
62631;PMS5003;48703;51.248;-0.546;2023-04-25T10:17:47;4.17;3.91;
62631;PMS5003;48703;51.248;-0.546;2023-04-25T10:20:49;3.59;3.19;
62631;PMS5003;48703;51.248;-0.546;2023-04-25T10:23:51;3.94;3.04;
62631;PMS5003;48703;51.248;-0.546;2023-04-25T10:26:52;3.74;3.11;
62631;PMS5003;48703;51.248;-0.546;2023-04-25T10:30:00;3.40;2.41;
62631;PMS5003;48703;51.248;-0.546;2023-04-25T10:32:56;2.34;1.74;
62631;PMS5003;48703;51.248;-0.546;2023-04-25T10:35:58;4.01;2.94;
62631;PMS5003;48703;51.248;-0.546;2023-04-25T10:39:02;2.97;2.67;
62631;PMS5003;48703;51.248;-0.546;2023-04-25T10:42:01;2.99;2.69;
62631;PMS5003;48703;51.248;-0.546;2023-04-25T10:45:04;3.66;2.76;
62631;PMS5003;48703;51.248;-0.546;2023-04-25T10:48:04;2.23;2.23;
62631;PMS5003;48703;51.248;-0.546;2023-04-25T10:51:07;3.07;2.77;
62631;PMS5003;48703;51.248;-0.546;2023-04-25T10:54:08;3.64;3.20;
62631;PMS5003;48703;51.248;-0.546;2023-04-25T10:57:42;2.56;2.39;
62631;PMS5003;48703;51.248;-0.546;2023-04-25T11:00:12;3.90;3.56;
62631;PMS5003;48703;51.248;-0.546;2023-04-25T11:03:15;2.73;2.60;
62631;PMS5003;48703;51.248;-0.546;2023-04-25T11:06:17;4.50;4.31;
62631;PMS5003;48703;51.248;-0.546;2023-04-25T11:09:16;3.46;3.03;
62631;PMS5003;48703;51.248;-0.546;2023-04-25T11:12:18;3.57;3.41;
62631;PMS5003;48703;51.248;-0.546;2023-04-25T11:15:20;3.79;3.44;
62631;PMS5003;48703;51.248;-0.546;2023-04-25T11:18:25;5.14;4.27;
62631;PMS5003;48703;51.248;-0.546;2023-04-25T11:21:23;4.63;3.63;
62631;PMS5003;48703;51.248;-0.546;2023-04-25T11:24:25;3.24;2.90;
62631;PMS5003;48703;51.248;-0.546;2023-04-25T11:27:26;3.34;3.34;
62631;PMS5003;48703;51.248;-0.546;2023-04-25T11:30:28;2.27;2.27;
62631;PMS5003;48703;51.248;-0.546;2023-04-25T11:33:30;2.93;2.37;
62631;PMS5003;48703;51.248;-0.546;2023-04-25T11:36:32;4.03;2.87;
62631;PMS5003;48703;51.248;-0.546;2023-04-25T11:39:33;2.04;2.04;
62631;PMS5003;48703;51.248;-0.546;2023-04-25T11:42:36;2.59;2.59;
62631;PMS5003;48703;51.248;-0.546;2023-04-25T11:45:37;3.60;3.30;
62631;PMS5003;48703;51.248;-0.546;2023-04-25T11:48:38;4.10;2.67;
62631;PMS5003;48703;51.248;-0.546;2023-04-25T11:51:40;3.36;3.19;
62631;PMS5003;48703;51.248;-0.546;2023-04-25T11:54:42;3.11;2.67;
62631;PMS5003;48703;51.248;-0.546;2023-04-25T11:57:44;3.39;2.99;
62631;PMS5003;48703;51.248;-0.546;2023-04-25T12:00:45;3.14;2.79;
62631;PMS5003;48703;51.248;-0.546;2023-04-25T12:03:47;2.37;2.19;
62631;PMS5003;48703;51.248;-0.546;2023-04-25T12:06:49;3.50;3.30;
62631;PMS5003;48703;51.248;-0.546;2023-04-25T12:09:51;4.17;3.56;
62631;PMS5003;48703;51.248;-0.546;2023-04-25T12:12:52;3.67;3.67;
62631;PMS5003;48703;51.248;-0.546;2023-04-25T12:15:54;3.93;3.13;
62631;PMS5003;48703;51.248;-0.546;2023-04-25T12:18:55;5.04;4.42;
62631;PMS5003;48703;51.248;-0.546;2023-04-25T12:21:56;2.99;1.91;
62631;PMS5003;48703;51.248;-0.546;2023-04-25T12:24:58;3.19;2.67;
62631;PMS5003;48703;51.248;-0.546;2023-04-25T12:28:08;3.57;3.43;
62631;PMS5003;48703;51.248;-0.546;2023-04-25T12:31:02;4.36;3.40;
62631;PMS5003;48703;51.248;-0.546;2023-04-25T12:34:03;3.81;3.76;
62631;PMS5003;48703;51.248;-0.546;2023-04-25T12:37:05;4.01;4.01;
62631;PMS5003;48703;51.248;-0.546;2023-04-25T12:40:07;4.19;3.64;
62631;PMS5003;48703;51.248;-0.546;2023-04-25T12:43:08;3.70;3.40;
62631;PMS5003;48703;51.248;-0.546;2023-04-25T12:46:10;4.44;3.46;
62631;PMS5003;48703;51.248;-0.546;2023-04-25T12:49:11;4.43;4.43;
62631;PMS5003;48703;51.248;-0.546;2023-04-25T12:52:13;3.64;3.43;
62631;PMS5003;48703;51.248;-0.546;2023-04-25T12:55:15;4.64;4.59;
62631;PMS5003;48703;51.248;-0.546;2023-04-25T12:58:17;3.81;3.34;
62631;PMS5003;48703;51.248;-0.546;2023-04-25T13:01:18;5.50;4.06;
62631;PMS5003;48703;51.248;-0.546;2023-04-25T13:04:20;3.79;3.19;
62631;PMS5003;48703;51.248;-0.546;2023-04-25T13:07:23;4.39;3.29;
62631;PMS5003;48703;51.248;-0.546;2023-04-25T13:10:23;4.71;4.46;
62631;PMS5003;48703;51.248;-0.546;2023-04-25T13:13:25;3.79;3.79;
62631;PMS5003;48703;51.248;-0.546;2023-04-25T13:16:27;3.83;3.77;
62631;PMS5003;48703;51.248;-0.546;2023-04-25T13:19:28;4.70;3.09;
62631;PMS5003;48703;51.248;-0.546;2023-04-25T13:22:30;5.17;4.01;
62631;PMS5003;48703;51.248;-0.546;2023-04-25T13:25:31;4.93;4.44;
62631;PMS5003;48703;51.248;-0.546;2023-04-25T13:28:33;3.86;3.86;
62631;PMS5003;48703;51.248;-0.546;2023-04-25T13:31:35;4.50;3.94;
62631;PMS5003;48703;51.248;-0.546;2023-04-25T13:34:36;5.63;4.84;
62631;PMS5003;48703;51.248;-0.546;2023-04-25T13:37:38;5.44;4.46;
62631;PMS5003;48703;51.248;-0.546;2023-04-25T13:40:40;4.27;4.27;
62631;PMS5003;48703;51.248;-0.546;2023-04-25T13:43:41;5.81;4.87;
62631;PMS5003;48703;51.248;-0.546;2023-04-25T13:46:43;4.03;4.03;
62631;PMS5003;48703;51.248;-0.546;2023-04-25T13:49:45;4.83;3.63;
62631;PMS5003;48703;51.248;-0.546;2023-04-25T13:52:47;5.40;4.20;
62631;PMS5003;48703;51.248;-0.546;2023-04-25T13:55:48;5.43;5.06;
62631;PMS5003;48703;51.248;-0.546;2023-04-25T13:58:50;3.99;3.56;
62631;PMS5003;48703;51.248;-0.546;2023-04-25T14:01:51;4.94;4.74;
62631;PMS5003;48703;51.248;-0.546;2023-04-25T14:04:53;4.47;3.93;
62631;PMS5003;48703;51.248;-0.546;2023-04-25T14:07:55;4.41;3.77;
62631;PMS5003;48703;51.248;-0.546;2023-04-25T14:10:56;3.93;3.54;
62631;PMS5003;48703;51.248;-0.546;2023-04-25T14:13:58;5.77;5.09;
62631;PMS5003;48703;51.248;-0.546;2023-04-25T14:17:00;6.00;4.79;
62631;PMS5003;48703;51.248;-0.546;2023-04-25T14:20:01;6.41;5.99;
62631;PMS5003;48703;51.248;-0.546;2023-04-25T14:23:03;4.17;3.80;
62631;PMS5003;48703;51.248;-0.546;2023-04-25T14:26:04;5.93;4.99;
62631;PMS5003;48703;51.248;-0.546;2023-04-25T14:29:06;5.76;4.94;
62631;PMS5003;48703;51.248;-0.546;2023-04-25T14:32:08;5.53;4.63;
62631;PMS5003;48703;51.248;-0.546;2023-04-25T14:35:09;5.81;5.81;
62631;PMS5003;48703;51.248;-0.546;2023-04-25T14:38:11;5.71;5.01;
62631;PMS5003;48703;51.248;-0.546;2023-04-25T14:41:13;4.71;4.67;
62631;PMS5003;48703;51.248;-0.546;2023-04-25T14:44:14;5.31;4.91;
62631;PMS5003;48703;51.248;-0.546;2023-04-25T14:47:16;4.93;4.69;
62631;PMS5003;48703;51.248;-0.546;2023-04-25T14:50:17;5.51;5.27;
62631;PMS5003;48703;51.248;-0.546;2023-04-25T14:53:19;5.86;5.24;
62631;PMS5003;48703;51.248;-0.546;2023-04-25T14:56:21;5.31;5.00;
62631;PMS5003;48703;51.248;-0.546;2023-04-25T14:59:22;5.13;4.80;
62631;PMS5003;48703;51.248;-0.546;2023-04-25T15:02:24;4.91;4.91;
62631;PMS5003;48703;51.248;-0.546;2023-04-25T15:05:26;5.56;5.56;
62631;PMS5003;48703;51.248;-0.546;2023-04-25T15:08:28;6.17;5.59;
62631;PMS5003;48703;51.248;-0.546;2023-04-25T15:11:29;5.03;4.91;
62631;PMS5003;48703;51.248;-0.546;2023-04-25T15:14:31;7.24;6.87;
62631;PMS5003;48703;51.248;-0.546;2023-04-25T15:17:33;5.31;5.31;
62631;PMS5003;48703;51.248;-0.546;2023-04-25T15:20:34;5.56;5.31;
62631;PMS5003;48703;51.248;-0.546;2023-04-25T15:23:36;6.89;6.21;
62631;PMS5003;48703;51.248;-0.546;2023-04-25T15:26:38;5.81;5.81;
62631;PMS5003;48703;51.248;-0.546;2023-04-25T15:29:39;6.61;6.30;
62631;PMS5003;48703;51.248;-0.546;2023-04-25T15:32:41;5.84;5.84;
62631;PMS5003;48703;51.248;-0.546;2023-04-25T15:35:43;7.01;6.59;
62631;PMS5003;48703;51.248;-0.546;2023-04-25T15:38:44;5.84;5.61;
62631;PMS5003;48703;51.248;-0.546;2023-04-25T15:41:46;7.57;6.74;
62631;PMS5003;48703;51.248;-0.546;2023-04-25T15:44:47;7.17;7.17;
62631;PMS5003;48703;51.248;-0.546;2023-04-25T15:47:49;7.43;6.73;
62631;PMS5003;48703;51.248;-0.546;2023-04-25T15:50:50;6.81;6.04;
62631;PMS5003;48703;51.248;-0.546;2023-04-25T15:53:52;6.27;5.96;
62631;PMS5003;48703;51.248;-0.546;2023-04-25T15:56:53;7.33;6.58;
62631;PMS5003;48703;51.248;-0.546;2023-04-25T15:59:54;6.43;5.96;
62631;PMS5003;48703;51.248;-0.546;2023-04-25T16:02:56;8.19;7.74;
62631;PMS5003;48703;51.248;-0.546;2023-04-25T16:05:58;7.63;6.54;
62631;PMS5003;48703;51.248;-0.546;2023-04-25T16:08:59;7.87;7.01;
62631;PMS5003;48703;51.248;-0.546;2023-04-25T16:12:01;7.21;6.21;
62631;PMS5003;48703;51.248;-0.546;2023-04-25T16:15:02;5.56;5.13;
62631;PMS5003;48703;51.248;-0.546;2023-04-25T16:18:04;6.57;6.10;
62631;PMS5003;48703;51.248;-0.546;2023-04-25T16:21:05;6.53;6.53;
62631;PMS5003;48703;51.248;-0.546;2023-04-25T16:24:07;6.66;6.57;
62631;PMS5003;48703;51.248;-0.546;2023-04-25T16:27:09;8.81;8.17;
62631;PMS5003;48703;51.248;-0.546;2023-04-25T16:30:10;6.50;6.44;
62631;PMS5003;48703;51.248;-0.546;2023-04-25T16:33:12;7.63;7.20;
62631;PMS5003;48703;51.248;-0.546;2023-04-25T16:36:14;6.69;5.87;
62631;PMS5003;48703;51.248;-0.546;2023-04-25T16:39:15;7.29;6.66;
62631;PMS5003;48703;51.248;-0.546;2023-04-25T16:42:16;8.90;8.41;
62631;PMS5003;48703;51.248;-0.546;2023-04-25T16:45:19;8.66;8.04;
62631;PMS5003;48703;51.248;-0.546;2023-04-25T16:48:19;7.91;7.30;
62631;PMS5003;48703;51.248;-0.546;2023-04-25T16:51:21;6.64;6.64;
62631;PMS5003;48703;51.248;-0.546;2023-04-25T16:54:23;6.87;6.74;
62631;PMS5003;48703;51.248;-0.546;2023-04-25T16:57:24;8.14;8.10;
62631;PMS5003;48703;51.248;-0.546;2023-04-25T17:00:26;8.93;8.03;
62631;PMS5003;48703;51.248;-0.546;2023-04-25T17:03:27;8.16;7.76;
62631;PMS5003;48703;51.248;-0.546;2023-04-25T17:06:29;9.70;9.27;
62631;PMS5003;48703;51.248;-0.546;2023-04-25T17:09:31;9.49;8.79;
62631;PMS5003;48703;51.248;-0.546;2023-04-25T17:12:32;9.04;8.83;
62631;PMS5003;48703;51.248;-0.546;2023-04-25T17:15:34;9.24;8.13;
62631;PMS5003;48703;51.248;-0.546;2023-04-25T17:18:35;9.07;9.07;
62631;PMS5003;48703;51.248;-0.546;2023-04-25T17:21:37;7.27;7.27;
62631;PMS5003;48703;51.248;-0.546;2023-04-25T17:24:38;9.87;8.31;
62631;PMS5003;48703;51.248;-0.546;2023-04-25T17:27:40;8.96;7.89;
62631;PMS5003;48703;51.248;-0.546;2023-04-25T17:30:42;8.86;8.04;
62631;PMS5003;48703;51.248;-0.546;2023-04-25T17:33:43;10.38;9.78;
62631;PMS5003;48703;51.248;-0.546;2023-04-25T17:36:45;9.11;8.93;
62631;PMS5003;48703;51.248;-0.546;2023-04-25T17:39:46;8.36;8.31;
62631;PMS5003;48703;51.248;-0.546;2023-04-25T17:42:48;8.90;8.73;
62631;PMS5003;48703;51.248;-0.546;2023-04-25T17:45:49;8.77;8.47;
62631;PMS5003;48703;51.248;-0.546;2023-04-25T17:48:51;8.96;8.06;
62631;PMS5003;48703;51.248;-0.546;2023-04-25T17:51:53;8.37;7.44;
62631;PMS5003;48703;51.248;-0.546;2023-04-25T17:54:55;8.27;8.27;
62631;PMS5003;48703;51.248;-0.546;2023-04-25T17:57:56;9.27;7.80;
62631;PMS5003;48703;51.248;-0.546;2023-04-25T18:00:57;9.73;9.69;
62631;PMS5003;48703;51.248;-0.546;2023-04-25T18:03:59;9.41;9.41;
62631;PMS5003;48703;51.248;-0.546;2023-04-25T18:07:00;10.63;9.10;
62631;PMS5003;48703;51.248;-0.546;2023-04-25T18:10:02;9.31;9.01;
62631;PMS5003;48703;51.248;-0.546;2023-04-25T18:13:03;8.43;7.89;
62631;PMS5003;48703;51.248;-0.546;2023-04-25T18:16:05;9.96;9.27;
62631;PMS5003;48703;51.248;-0.546;2023-04-25T18:19:07;9.19;9.19;
62631;PMS5003;48703;51.248;-0.546;2023-04-25T18:22:08;10.10;8.83;
62631;PMS5003;48703;51.248;-0.546;2023-04-25T18:25:10;9.41;9.41;
62631;PMS5003;48703;51.248;-0.546;2023-04-25T18:28:12;8.94;8.04;
62631;PMS5003;48703;51.248;-0.546;2023-04-25T18:31:13;9.54;8.59;